sensor_id;sensor_type;location;lat;lon;timestamp;pressure;altitude;pressure_sealevel;temperature;humidity
44140;BME280;29803;51.048;4.686;2023-04-28T00:01:44;101242.81;;;9.67;100.00
44140;BME280;29803;51.048;4.686;2023-04-28T00:04:14;101228.09;;;9.53;100.00
44140;BME280;29803;51.048;4.686;2023-04-28T00:06:45;101220.09;;;9.44;100.00
44140;BME280;29803;51.048;4.686;2023-04-28T00:09:15;101211.84;;;9.37;100.00
44140;BME280;29803;51.048;4.686;2023-04-28T00:11:45;101198.50;;;9.27;100.00
44140;BME280;29803;51.048;4.686;2023-04-28T00:14:16;101196.59;;;9.20;100.00
44140;BME280;29803;51.048;4.686;2023-04-28T00:16:46;101198.53;;;9.18;100.00
44140;BME280;29803;51.048;4.686;2023-04-28T00:19:17;101186.88;;;9.19;100.00
44140;BME280;29803;51.048;4.686;2023-04-28T00:21:47;101181.19;;;9.22;100.00
44140;BME280;29803;51.048;4.686;2023-04-28T00:24:17;101178.53;;;9.22;100.00
44140;BME280;29803;51.048;4.686;2023-04-28T00:26:48;101172.88;;;9.25;100.00
44140;BME280;29803;51.048;4.686;2023-04-28T00:29:18;101164.53;;;9.28;100.00
44140;BME280;29803;51.048;4.686;2023-04-28T00:31:48;101146.50;;;9.30;100.00
44140;BME280;29803;51.048;4.686;2023-04-28T00:34:19;101135.09;;;9.28;100.00
44140;BME280;29803;51.048;4.686;2023-04-28T00:36:49;101147.63;;;9.27;100.00
44140;BME280;29803;51.048;4.686;2023-04-28T00:39:20;101144.44;;;9.24;100.00
44140;BME280;29803;51.048;4.686;2023-04-28T00:41:51;101156.38;;;9.29;100.00
44140;BME280;29803;51.048;4.686;2023-04-28T00:44:22;101175.63;;;9.33;100.00
44140;BME280;29803;51.048;4.686;2023-04-28T00:46:52;101177.72;;;9.39;100.00
44140;BME280;29803;51.048;4.686;2023-04-28T00:49:23;101176.56;;;9.42;100.00
44140;BME280;29803;51.048;4.686;2023-04-28T00:51:53;101174.28;;;9.47;100.00
44140;BME280;29803;51.048;4.686;2023-04-28T00:54:24;101179.19;;;9.51;100.00
44140;BME280;29803;51.048;4.686;2023-04-28T00:56:55;101186.09;;;9.54;100.00
44140;BME280;29803;51.048;4.686;2023-04-28T00:59:26;101184.72;;;9.50;100.00
44140;BME280;29803;51.048;4.686;2023-04-28T01:01:56;101181.78;;;9.43;100.00
44140;BME280;29803;51.048;4.686;2023-04-28T01:04:28;101180.09;;;9.42;100.00
44140;BME280;29803;51.048;4.686;2023-04-28T01:07:00;101177.25;;;9.44;100.00
44140;BME280;29803;51.048;4.686;2023-04-28T01:09:30;101184.31;;;9.45;100.00
44140;BME280;29803;51.048;4.686;2023-04-28T01:12:01;101192.19;;;9.46;100.00
44140;BME280;29803;51.048;4.686;2023-04-28T01:14:32;101177.69;;;9.49;100.00
44140;BME280;29803;51.048;4.686;2023-04-28T01:17:02;101177.50;;;9.50;100.00
44140;BME280;29803;51.048;4.686;2023-04-28T01:19:33;101164.56;;;9.46;100.00
44140;BME280;29803;51.048;4.686;2023-04-28T01:22:03;101167.41;;;9.44;100.00
44140;BME280;29803;51.048;4.686;2023-04-28T01:24:34;101154.69;;;9.46;100.00
44140;BME280;29803;51.048;4.686;2023-04-28T01:27:04;101153.69;;;9.47;100.00
44140;BME280;29803;51.048;4.686;2023-04-28T01:29:35;101162.06;;;9.44;100.00
44140;BME280;29803;51.048;4.686;2023-04-28T01:32:05;101161.72;;;9.47;100.00
44140;BME280;29803;51.048;4.686;2023-04-28T01:34:35;101156.25;;;9.49;100.00
44140;BME280;29803;51.048;4.686;2023-04-28T01:37:06;101158.94;;;9.49;100.00
44140;BME280;29803;51.048;4.686;2023-04-28T01:39:36;101149.72;;;9.51;100.00
44140;BME280;29803;51.048;4.686;2023-04-28T01:42:06;101142.16;;;9.47;100.00
44140;BME280;29803;51.048;4.686;2023-04-28T01:44:37;101150.97;;;9.39;100.00
44140;BME280;29803;51.048;4.686;2023-04-28T01:47:07;101151.25;;;9.36;100.00
44140;BME280;29803;51.048;4.686;2023-04-28T01:49:38;101147.34;;;9.30;100.00
44140;BME280;29803;51.048;4.686;2023-04-28T01:52:09;101143.94;;;9.28;100.00
44140;BME280;29803;51.048;4.686;2023-04-28T01:54:39;101136.78;;;9.29;100.00
44140;BME280;29803;51.048;4.686;2023-04-28T01:57:10;101126.53;;;9.24;100.00
44140;BME280;29803;51.048;4.686;2023-04-28T01:59:40;101124.69;;;9.25;100.00
44140;BME280;29803;51.048;4.686;2023-04-28T02:02:11;101107.63;;;9.26;100.00
44140;BME280;29803;51.048;4.686;2023-04-28T02:04:41;101103.56;;;9.22;100.00
44140;BME280;29803;51.048;4.686;2023-04-28T02:07:13;101098.53;;;9.19;100.00
44140;BME280;29803;51.048;4.686;2023-04-28T02:09:44;101082.38;;;9.11;100.00
44140;BME280;29803;51.048;4.686;2023-04-28T02:12:15;101057.06;;;9.05;100.00
44140;BME280;29803;51.048;4.686;2023-04-28T02:14:50;101017.81;;;8.96;100.00
44140;BME280;29803;51.048;4.686;2023-04-28T02:17:33;100985.63;;;8.88;100.00
44140;BME280;29803;51.048;4.686;2023-04-28T02:20:03;100978.50;;;8.78;100.00
44140;BME280;29803;51.048;4.686;2023-04-28T02:22:42;100999.78;;;8.80;100.00
44140;BME280;29803;51.048;4.686;2023-04-28T02:25:13;101009.91;;;8.76;100.00
44140;BME280;29803;51.048;4.686;2023-04-28T02:27:43;100999.38;;;8.75;100.00
44140;BME280;29803;51.048;4.686;2023-04-28T02:30:13;101011.09;;;8.74;100.00
44140;BME280;29803;51.048;4.686;2023-04-28T02:32:44;101018.94;;;8.75;100.00
44140;BME280;29803;51.048;4.686;2023-04-28T02:35:14;101030.47;;;8.76;100.00
44140;BME280;29803;51.048;4.686;2023-04-28T02:37:45;101054.94;;;8.81;100.00
44140;BME280;29803;51.048;4.686;2023-04-28T02:40:15;101060.84;;;8.85;100.00
44140;BME280;29803;51.048;4.686;2023-04-28T02:42:46;101052.81;;;8.85;100.00
44140;BME280;29803;51.048;4.686;2023-04-28T02:45:16;101060.53;;;8.88;100.00
44140;BME280;29803;51.048;4.686;2023-04-28T02:47:46;101051.53;;;8.89;100.00
44140;BME280;29803;51.048;4.686;2023-04-28T02:50:17;101049.69;;;8.89;100.00
44140;BME280;29803;51.048;4.686;2023-04-28T02:52:47;101045.19;;;8.90;100.00
44140;BME280;29803;51.048;4.686;2023-04-28T02:55:18;101043.34;;;8.90;100.00
44140;BME280;29803;51.048;4.686;2023-04-28T02:57:53;101044.47;;;8.88;100.00
44140;BME280;29803;51.048;4.686;2023-04-28T03:00:23;101046.19;;;8.89;100.00
44140;BME280;29803;51.048;4.686;2023-04-28T03:02:53;101044.34;;;8.89;100.00
44140;BME280;29803;51.048;4.686;2023-04-28T03:05:24;101044.88;;;8.93;100.00
44140;BME280;29803;51.048;4.686;2023-04-28T03:07:54;101026.13;;;8.93;100.00
44140;BME280;29803;51.048;4.686;2023-04-28T03:10:25;101031.38;;;8.94;100.00
44140;BME280;29803;51.048;4.686;2023-04-28T03:12:55;101028.25;;;8.99;100.00
44140;BME280;29803;51.048;4.686;2023-04-28T03:15:26;101028.25;;;8.99;100.00
44140;BME280;29803;51.048;4.686;2023-04-28T03:17:56;101019.22;;;9.00;100.00
44140;BME280;29803;51.048;4.686;2023-04-28T03:20:27;101039.63;;;9.01;100.00
44140;BME280;29803;51.048;4.686;2023-04-28T03:22:57;101042.69;;;9.06;100.00
44140;BME280;29803;51.048;4.686;2023-04-28T03:25:27;101028.00;;;9.10;100.00
44140;BME280;29803;51.048;4.686;2023-04-28T03:27:58;101035.03;;;9.11;100.00
44140;BME280;29803;51.048;4.686;2023-04-28T03:30:28;101034.59;;;9.16;100.00
44140;BME280;29803;51.048;4.686;2023-04-28T03:32:58;101027.22;;;9.18;100.00
44140;BME280;29803;51.048;4.686;2023-04-28T03:35:29;101016.22;;;9.21;100.00
44140;BME280;29803;51.048;4.686;2023-04-28T03:37:59;101024.09;;;9.22;100.00
44140;BME280;29803;51.048;4.686;2023-04-28T03:40:30;101021.81;;;9.27;100.00
44140;BME280;29803;51.048;4.686;2023-04-28T03:43:00;101018.13;;;9.28;100.00
44140;BME280;29803;51.048;4.686;2023-04-28T03:45:31;101024.66;;;9.26;100.00
44140;BME280;29803;51.048;4.686;2023-04-28T03:48:01;101018.66;;;9.32;100.00
44140;BME280;29803;51.048;4.686;2023-04-28T03:50:31;101023.63;;;9.27;100.00
44140;BME280;29803;51.048;4.686;2023-04-28T03:53:02;101022.81;;;9.26;100.00
44140;BME280;29803;51.048;4.686;2023-04-28T03:55:32;101018.63;;;9.24;100.00
44140;BME280;29803;51.048;4.686;2023-04-28T03:58:03;101014.31;;;9.31;100.00
44140;BME280;29803;51.048;4.686;2023-04-28T04:00:33;101001.59;;;9.33;100.00
44140;BME280;29803;51.048;4.686;2023-04-28T04:03:04;101009.50;;;9.34;100.00
44140;BME280;29803;51.048;4.686;2023-04-28T04:05:34;101005.97;;;9.34;100.00
44140;BME280;29803;51.048;4.686;2023-04-28T04:08:04;101006.38;;;9.39;100.00
44140;BME280;29803;51.048;4.686;2023-04-28T04:10:35;100998.16;;;9.41;100.00
44140;BME280;29803;51.048;4.686;2023-04-28T04:13:05;101003.19;;;9.44;100.00
44140;BME280;29803;51.048;4.686;2023-04-28T04:15:36;101005.03;;;9.43;100.00
44140;BME280;29803;51.048;4.686;2023-04-28T04:18:06;101000.38;;;9.45;100.00
44140;BME280;29803;51.048;4.686;2023-04-28T04:20:37;101008.25;;;9.47;100.00
44140;BME280;29803;51.048;4.686;2023-04-28T04:23:07;101009.09;;;9.47;100.00
44140;BME280;29803;51.048;4.686;2023-04-28T04:25:38;101013.78;;;9.45;100.00
44140;BME280;29803;51.048;4.686;2023-04-28T04:28:08;101009.25;;;9.46;100.00
44140;BME280;29803;51.048;4.686;2023-04-28T04:30:38;100998.38;;;9.47;100.00
44140;BME280;29803;51.048;4.686;2023-04-28T04:33:09;100996.91;;;9.53;100.00
44140;BME280;29803;51.048;4.686;2023-04-28T04:35:42;100997.75;;;9.53;100.00
44140;BME280;29803;51.048;4.686;2023-04-28T04:38:12;100984.06;;;9.56;100.00
44140;BME280;29803;51.048;4.686;2023-04-28T04:40:43;100981.91;;;9.60;100.00
44140;BME280;29803;51.048;4.686;2023-04-28T04:43:13;100992.75;;;9.58;100.00
44140;BME280;29803;51.048;4.686;2023-04-28T04:45:44;100988.28;;;9.59;100.00
44140;BME280;29803;51.048;4.686;2023-04-28T04:48:14;100984.88;;;9.57;100.00
44140;BME280;29803;51.048;4.686;2023-04-28T04:50:45;100982.69;;;9.52;100.00
44140;BME280;29803;51.048;4.686;2023-04-28T04:53:16;100989.56;;;9.55;100.00
44140;BME280;29803;51.048;4.686;2023-04-28T04:55:46;100993.75;;;9.57;100.00
44140;BME280;29803;51.048;4.686;2023-04-28T04:58:17;100991.41;;;9.54;100.00
44140;BME280;29803;51.048;4.686;2023-04-28T05:00:47;100997.63;;;9.55;100.00
44140;BME280;29803;51.048;4.686;2023-04-28T05:03:18;100990.94;;;9.59;100.00
44140;BME280;29803;51.048;4.686;2023-04-28T05:05:48;100996.81;;;9.63;100.00
44140;BME280;29803;51.048;4.686;2023-04-28T05:08:18;101002.16;;;9.63;100.00
44140;BME280;29803;51.048;4.686;2023-04-28T05:10:49;100987.09;;;9.62;100.00
44140;BME280;29803;51.048;4.686;2023-04-28T05:13:19;100995.50;;;9.67;100.00
44140;BME280;29803;51.048;4.686;2023-04-28T05:15:50;100995.88;;;9.72;100.00
44140;BME280;29803;51.048;4.686;2023-04-28T05:18:20;100990.06;;;9.76;100.00
44140;BME280;29803;51.048;4.686;2023-04-28T05:20:50;101002.31;;;9.79;100.00
44140;BME280;29803;51.048;4.686;2023-04-28T05:23:21;100995.78;;;9.81;100.00
44140;BME280;29803;51.048;4.686;2023-04-28T05:25:51;100983.22;;;9.82;100.00
44140;BME280;29803;51.048;4.686;2023-04-28T05:28:22;100976.72;;;9.84;100.00
44140;BME280;29803;51.048;4.686;2023-04-28T05:30:52;100987.28;;;9.86;100.00
44140;BME280;29803;51.048;4.686;2023-04-28T05:33:22;100981.53;;;9.81;100.00
44140;BME280;29803;51.048;4.686;2023-04-28T05:35:53;100977.19;;;9.80;100.00
44140;BME280;29803;51.048;4.686;2023-04-28T05:38:23;100993.41;;;9.78;100.00
44140;BME280;29803;51.048;4.686;2023-04-28T05:40:54;100997.63;;;9.81;100.00
44140;BME280;29803;51.048;4.686;2023-04-28T05:43:24;100989.94;;;9.86;100.00
44140;BME280;29803;51.048;4.686;2023-04-28T05:45:55;100989.66;;;9.89;100.00
44140;BME280;29803;51.048;4.686;2023-04-28T05:48:25;100995.03;;;9.97;100.00
44140;BME280;29803;51.048;4.686;2023-04-28T05:50:56;100997.53;;;9.99;100.00
44140;BME280;29803;51.048;4.686;2023-04-28T05:53:26;100992.72;;;10.02;100.00
44140;BME280;29803;51.048;4.686;2023-04-28T05:55:56;100991.94;;;10.10;100.00
44140;BME280;29803;51.048;4.686;2023-04-28T05:58:27;100999.16;;;10.18;100.00
44140;BME280;29803;51.048;4.686;2023-04-28T06:00:58;100993.19;;;10.24;100.00
44140;BME280;29803;51.048;4.686;2023-04-28T06:03:29;101000.44;;;10.31;100.00
44140;BME280;29803;51.048;4.686;2023-04-28T06:05:59;100996.94;;;10.39;100.00
44140;BME280;29803;51.048;4.686;2023-04-28T06:08:30;101006.84;;;10.38;100.00
44140;BME280;29803;51.048;4.686;2023-04-28T06:11:00;100997.44;;;10.34;100.00
44140;BME280;29803;51.048;4.686;2023-04-28T06:13:30;101009.00;;;10.35;100.00
44140;BME280;29803;51.048;4.686;2023-04-28T06:16:01;101010.88;;;10.43;100.00
44140;BME280;29803;51.048;4.686;2023-04-28T06:18:31;101018.94;;;10.43;100.00
44140;BME280;29803;51.048;4.686;2023-04-28T06:21:01;101019.09;;;10.41;100.00
44140;BME280;29803;51.048;4.686;2023-04-28T06:23:32;101018.25;;;10.41;100.00
44140;BME280;29803;51.048;4.686;2023-04-28T06:26:02;101020.78;;;10.42;100.00
44140;BME280;29803;51.048;4.686;2023-04-28T06:28:33;101018.41;;;10.39;100.00
44140;BME280;29803;51.048;4.686;2023-04-28T06:31:03;101016.78;;;10.46;100.00
44140;BME280;29803;51.048;4.686;2023-04-28T06:33:33;101014.63;;;10.50;100.00
44140;BME280;29803;51.048;4.686;2023-04-28T06:36:04;101024.00;;;10.54;100.00
44140;BME280;29803;51.048;4.686;2023-04-28T06:38:35;101020.50;;;10.61;100.00
44140;BME280;29803;51.048;4.686;2023-04-28T06:41:06;101019.19;;;10.66;100.00
44140;BME280;29803;51.048;4.686;2023-04-28T06:43:37;101022.06;;;10.72;100.00
44140;BME280;29803;51.048;4.686;2023-04-28T06:46:07;101017.75;;;10.79;100.00
44140;BME280;29803;51.048;4.686;2023-04-28T06:48:38;101021.25;;;10.80;100.00
44140;BME280;29803;51.048;4.686;2023-04-28T06:51:09;101014.03;;;10.80;100.00
44140;BME280;29803;51.048;4.686;2023-04-28T06:53:39;101021.94;;;10.90;100.00
44140;BME280;29803;51.048;4.686;2023-04-28T06:56:10;101022.78;;;10.91;100.00
44140;BME280;29803;51.048;4.686;2023-04-28T06:58:40;101024.63;;;10.98;100.00
44140;BME280;29803;51.048;4.686;2023-04-28T07:01:10;101017.09;;;11.02;100.00
44140;BME280;29803;51.048;4.686;2023-04-28T07:03:41;101020.78;;;11.09;100.00
44140;BME280;29803;51.048;4.686;2023-04-28T07:06:12;101012.59;;;11.19;100.00
44140;BME280;29803;51.048;4.686;2023-04-28T07:08:43;101013.97;;;11.31;100.00
44140;BME280;29803;51.048;4.686;2023-04-28T07:11:13;101018.97;;;11.34;100.00
44140;BME280;29803;51.048;4.686;2023-04-28T07:13:44;101019.81;;;11.43;100.00
44140;BME280;29803;51.048;4.686;2023-04-28T07:16:18;101016.97;;;11.52;100.00
44140;BME280;29803;51.048;4.686;2023-04-28T07:18:48;101034.44;;;11.73;100.00
44140;BME280;29803;51.048;4.686;2023-04-28T07:21:19;101022.53;;;11.75;100.00
44140;BME280;29803;51.048;4.686;2023-04-28T07:23:50;101031.41;;;11.92;100.00
44140;BME280;29803;51.048;4.686;2023-04-28T07:26:22;101035.09;;;12.07;100.00
44140;BME280;29803;51.048;4.686;2023-04-28T07:28:52;101024.31;;;12.15;100.00
44140;BME280;29803;51.048;4.686;2023-04-28T07:31:23;101025.81;;;12.26;100.00
44140;BME280;29803;51.048;4.686;2023-04-28T07:33:53;101033.50;;;12.37;100.00
44140;BME280;29803;51.048;4.686;2023-04-28T07:36:24;101028.25;;;12.44;100.00
44140;BME280;29803;51.048;4.686;2023-04-28T07:38:55;101031.41;;;12.56;100.00
44140;BME280;29803;51.048;4.686;2023-04-28T07:41:25;101026.28;;;12.69;100.00
44140;BME280;29803;51.048;4.686;2023-04-28T07:43:56;101034.00;;;12.80;100.00
44140;BME280;29803;51.048;4.686;2023-04-28T07:46:27;101030.19;;;12.98;100.00
44140;BME280;29803;51.048;4.686;2023-04-28T07:48:57;101027.47;;;13.06;100.00
44140;BME280;29803;51.048;4.686;2023-04-28T07:51:28;101031.06;;;13.21;100.00
44140;BME280;29803;51.048;4.686;2023-04-28T07:53:58;101028.16;;;13.31;100.00
44140;BME280;29803;51.048;4.686;2023-04-28T07:56:28;101021.25;;;13.51;100.00
44140;BME280;29803;51.048;4.686;2023-04-28T07:58:59;101020.75;;;13.70;100.00
44140;BME280;29803;51.048;4.686;2023-04-28T08:01:29;101014.41;;;14.01;100.00
44140;BME280;29803;51.048;4.686;2023-04-28T08:04:03;101013.94;;;14.27;100.00
44140;BME280;29803;51.048;4.686;2023-04-28T08:06:33;101010.69;;;14.61;100.00
44140;BME280;29803;51.048;4.686;2023-04-28T08:09:05;101013.22;;;14.84;100.00
44140;BME280;29803;51.048;4.686;2023-04-28T08:11:35;101005.34;;;15.04;100.00
44140;BME280;29803;51.048;4.686;2023-04-28T08:14:06;101015.22;;;15.12;100.00
44140;BME280;29803;51.048;4.686;2023-04-28T08:16:36;101009.88;;;15.18;100.00
44140;BME280;29803;51.048;4.686;2023-04-28T08:19:09;101004.25;;;14.98;100.00
44140;BME280;29803;51.048;4.686;2023-04-28T08:21:40;101013.56;;;14.96;100.00
44140;BME280;29803;51.048;4.686;2023-04-28T08:24:13;101011.94;;;14.80;100.00
44140;BME280;29803;51.048;4.686;2023-04-28T08:26:43;101017.91;;;14.75;100.00
44140;BME280;29803;51.048;4.686;2023-04-28T08:29:13;101018.16;;;14.81;100.00
44140;BME280;29803;51.048;4.686;2023-04-28T08:31:44;101016.91;;;14.76;100.00
44140;BME280;29803;51.048;4.686;2023-04-28T08:34:14;101016.94;;;14.98;100.00
44140;BME280;29803;51.048;4.686;2023-04-28T08:36:48;101014.03;;;14.99;100.00
44140;BME280;29803;51.048;4.686;2023-04-28T08:39:18;101014.50;;;15.03;100.00
44140;BME280;29803;51.048;4.686;2023-04-28T08:41:49;101024.06;;;15.06;100.00
44140;BME280;29803;51.048;4.686;2023-04-28T08:44:20;101016.41;;;15.09;100.00
44140;BME280;29803;51.048;4.686;2023-04-28T08:46:53;101024.72;;;15.08;100.00
44140;BME280;29803;51.048;4.686;2023-04-28T08:49:26;101026.03;;;15.12;100.00
44140;BME280;29803;51.048;4.686;2023-04-28T08:52:02;101028.97;;;15.17;100.00
44140;BME280;29803;51.048;4.686;2023-04-28T08:54:37;101030.06;;;15.22;100.00
44140;BME280;29803;51.048;4.686;2023-04-28T08:57:08;101028.47;;;15.28;100.00
44140;BME280;29803;51.048;4.686;2023-04-28T08:59:39;101028.59;;;15.41;100.00
44140;BME280;29803;51.048;4.686;2023-04-28T09:02:10;101033.41;;;15.46;100.00
44140;BME280;29803;51.048;4.686;2023-04-28T09:04:40;101031.75;;;15.45;100.00
44140;BME280;29803;51.048;4.686;2023-04-28T09:07:11;101033.41;;;15.46;100.00
44140;BME280;29803;51.048;4.686;2023-04-28T09:09:41;101031.56;;;15.46;100.00
44140;BME280;29803;51.048;4.686;2023-04-28T09:12:14;101041.66;;;15.59;100.00
44140;BME280;29803;51.048;4.686;2023-04-28T09:14:45;101036.19;;;15.74;100.00
44140;BME280;29803;51.048;4.686;2023-04-28T09:17:27;101033.44;;;15.95;100.00
44140;BME280;29803;51.048;4.686;2023-04-28T09:19:57;101033.75;;;16.07;100.00
44140;BME280;29803;51.048;4.686;2023-04-28T09:22:27;101035.47;;;16.15;100.00
44140;BME280;29803;51.048;4.686;2023-04-28T09:25:09;101032.25;;;16.04;100.00
44140;BME280;29803;51.048;4.686;2023-04-28T09:27:39;101029.53;;;15.98;100.00
44140;BME280;29803;51.048;4.686;2023-04-28T09:30:10;101033.03;;;15.92;100.00
44140;BME280;29803;51.048;4.686;2023-04-28T09:32:40;101023.44;;;15.96;100.00
44140;BME280;29803;51.048;4.686;2023-04-28T09:35:11;101035.97;;;15.97;100.00
44140;BME280;29803;51.048;4.686;2023-04-28T09:37:41;101032.53;;;16.16;100.00
44140;BME280;29803;51.048;4.686;2023-04-28T09:40:12;101031.00;;;16.35;100.00
44140;BME280;29803;51.048;4.686;2023-04-28T09:42:43;101023.66;;;16.64;100.00
44140;BME280;29803;51.048;4.686;2023-04-28T09:45:15;101022.25;;;16.74;100.00
44140;BME280;29803;51.048;4.686;2023-04-28T09:47:45;101022.72;;;16.85;100.00
44140;BME280;29803;51.048;4.686;2023-04-28T09:50:16;101016.84;;;16.74;100.00
44140;BME280;29803;51.048;4.686;2023-04-28T09:55:36;101022.59;;;16.58;100.00
44140;BME280;29803;51.048;4.686;2023-04-28T09:58:08;101022.31;;;16.46;100.00
44140;BME280;29803;51.048;4.686;2023-04-28T10:00:41;101020.06;;;16.56;100.00
44140;BME280;29803;51.048;4.686;2023-04-28T10:03:12;101020.00;;;16.78;100.00
44140;BME280;29803;51.048;4.686;2023-04-28T10:05:43;101015.44;;;16.92;100.00
44140;BME280;29803;51.048;4.686;2023-04-28T10:08:14;101010.66;;;17.00;100.00
44140;BME280;29803;51.048;4.686;2023-04-28T10:10:45;101004.91;;;17.50;100.00
44140;BME280;29803;51.048;4.686;2023-04-28T10:13:22;101006.19;;;17.67;100.00
44140;BME280;29803;51.048;4.686;2023-04-28T10:15:52;101003.69;;;17.72;100.00
44140;BME280;29803;51.048;4.686;2023-04-28T10:18:27;101012.66;;;17.53;100.00
44140;BME280;29803;51.048;4.686;2023-04-28T10:20:59;101005.13;;;17.55;100.00
44140;BME280;29803;51.048;4.686;2023-04-28T10:26:17;101003.88;;;17.64;100.00
44140;BME280;29803;51.048;4.686;2023-04-28T10:28:49;101003.25;;;17.69;100.00
44140;BME280;29803;51.048;4.686;2023-04-28T10:31:20;101004.75;;;17.78;100.00
44140;BME280;29803;51.048;4.686;2023-04-28T10:33:51;101008.44;;;17.57;100.00
44140;BME280;29803;51.048;4.686;2023-04-28T10:39:11;101005.09;;;17.42;100.00
44140;BME280;29803;51.048;4.686;2023-04-28T10:41:42;101013.25;;;17.42;100.00
44140;BME280;29803;51.048;4.686;2023-04-28T11:00:44;101009.91;;;17.66;100.00
44140;BME280;29803;51.048;4.686;2023-04-28T11:06:17;101007.41;;;17.45;100.00
44140;BME280;29803;51.048;4.686;2023-04-28T11:08:48;101007.59;;;17.30;100.00
44140;BME280;29803;51.048;4.686;2023-04-28T11:11:19;101008.88;;;17.34;100.00
44140;BME280;29803;51.048;4.686;2023-04-28T11:13:50;101011.75;;;17.13;100.00
44140;BME280;29803;51.048;4.686;2023-04-28T11:16:22;101025.31;;;17.26;100.00
44140;BME280;29803;51.048;4.686;2023-04-28T11:18:53;101012.19;;;17.29;100.00
44140;BME280;29803;51.048;4.686;2023-04-28T11:21:24;101021.19;;;17.50;100.00
44140;BME280;29803;51.048;4.686;2023-04-28T11:23:57;101023.69;;;17.45;100.00
44140;BME280;29803;51.048;4.686;2023-04-28T11:26:27;101023.50;;;17.53;100.00
44140;BME280;29803;51.048;4.686;2023-04-28T11:28:58;101028.91;;;17.66;100.00
44140;BME280;29803;51.048;4.686;2023-04-28T11:31:28;101033.50;;;17.52;100.00
44140;BME280;29803;51.048;4.686;2023-04-28T11:34:00;101032.44;;;17.47;100.00
44140;BME280;29803;51.048;4.686;2023-04-28T11:36:33;101039.53;;;17.34;100.00
44140;BME280;29803;51.048;4.686;2023-04-28T11:39:08;101036.78;;;17.08;100.00
44140;BME280;29803;51.048;4.686;2023-04-28T11:41:40;101048.88;;;16.71;100.00
44140;BME280;29803;51.048;4.686;2023-04-28T11:44:12;101055.41;;;16.42;100.00
44140;BME280;29803;51.048;4.686;2023-04-28T11:49:14;101059.97;;;16.07;100.00
44140;BME280;29803;51.048;4.686;2023-04-28T11:51:45;101067.00;;;16.01;100.00
44140;BME280;29803;51.048;4.686;2023-04-28T11:54:19;101066.75;;;15.96;100.00
44140;BME280;29803;51.048;4.686;2023-04-28T11:56:51;101061.34;;;15.96;100.00
44140;BME280;29803;51.048;4.686;2023-04-28T11:59:26;101066.56;;;15.97;100.00
44140;BME280;29803;51.048;4.686;2023-04-28T12:01:57;101069.06;;;15.99;100.00
44140;BME280;29803;51.048;4.686;2023-04-28T12:07:19;101065.88;;;16.17;100.00
44140;BME280;29803;51.048;4.686;2023-04-28T12:10:08;101082.38;;;16.22;100.00
44140;BME280;29803;51.048;4.686;2023-04-28T12:12:39;101074.44;;;16.20;100.00
44140;BME280;29803;51.048;4.686;2023-04-28T12:15:10;101070.81;;;16.07;100.00
44140;BME280;29803;51.048;4.686;2023-04-28T12:17:40;101080.69;;;15.93;100.00
44140;BME280;29803;51.048;4.686;2023-04-28T12:20:12;101082.72;;;15.91;100.00
44140;BME280;29803;51.048;4.686;2023-04-28T12:23:02;101088.34;;;15.89;100.00
44140;BME280;29803;51.048;4.686;2023-04-28T12:25:32;101087.25;;;15.84;100.00
44140;BME280;29803;51.048;4.686;2023-04-28T12:28:05;101094.09;;;15.79;100.00
44140;BME280;29803;51.048;4.686;2023-04-28T12:30:36;101094.53;;;15.62;100.00
44140;BME280;29803;51.048;4.686;2023-04-28T12:35:59;101106.09;;;15.55;100.00
44140;BME280;29803;51.048;4.686;2023-04-28T12:38:29;101109.88;;;15.40;100.00
44140;BME280;29803;51.048;4.686;2023-04-28T12:40:59;101114.44;;;15.39;100.00
44140;BME280;29803;51.048;4.686;2023-04-28T12:43:30;101113.81;;;15.37;100.00
44140;BME280;29803;51.048;4.686;2023-04-28T12:46:01;101110.28;;;15.58;100.00
44140;BME280;29803;51.048;4.686;2023-04-28T12:48:33;101116.25;;;15.68;100.00
44140;BME280;29803;51.048;4.686;2023-04-28T12:51:03;101115.72;;;15.79;100.00
44140;BME280;29803;51.048;4.686;2023-04-28T12:53:34;101114.09;;;15.85;100.00
44140;BME280;29803;51.048;4.686;2023-04-28T12:56:04;101119.34;;;15.87;100.00
44140;BME280;29803;51.048;4.686;2023-04-28T12:58:35;101125.97;;;15.84;100.00
44140;BME280;29803;51.048;4.686;2023-04-28T13:01:05;101116.13;;;15.76;100.00
44140;BME280;29803;51.048;4.686;2023-04-28T13:03:36;101122.50;;;15.69;100.00
44140;BME280;29803;51.048;4.686;2023-04-28T13:06:06;101125.09;;;15.62;100.00
44140;BME280;29803;51.048;4.686;2023-04-28T13:08:37;101128.97;;;15.53;100.00
44140;BME280;29803;51.048;4.686;2023-04-28T13:11:08;101134.56;;;15.51;100.00
44140;BME280;29803;51.048;4.686;2023-04-28T13:13:40;101136.81;;;15.48;100.00
44140;BME280;29803;51.048;4.686;2023-04-28T13:16:11;101138.69;;;15.47;100.00
44140;BME280;29803;51.048;4.686;2023-04-28T13:18:43;101136.81;;;15.48;100.00
44140;BME280;29803;51.048;4.686;2023-04-28T13:21:14;101144.84;;;15.41;100.00
44140;BME280;29803;51.048;4.686;2023-04-28T13:23:44;101145.44;;;15.37;100.00
44140;BME280;29803;51.048;4.686;2023-04-28T13:26:15;101143.81;;;15.42;100.00
44140;BME280;29803;51.048;4.686;2023-04-28T13:28:46;101141.16;;;15.27;100.00
44140;BME280;29803;51.048;4.686;2023-04-28T13:31:16;101148.78;;;15.24;100.00
44140;BME280;29803;51.048;4.686;2023-04-28T13:33:47;101145.25;;;15.23;100.00
44140;BME280;29803;51.048;4.686;2023-04-28T13:36:17;101153.72;;;15.20;100.00
44140;BME280;29803;51.048;4.686;2023-04-28T13:38:48;101152.53;;;15.23;100.00
44140;BME280;29803;51.048;4.686;2023-04-28T13:41:19;101141.94;;;15.07;100.00